createdAt,value
2022-11-25T00:01:27.910Z,8.93
2022-11-25T00:03:56.539Z,10.61
2022-11-25T00:06:25.618Z,11.62
2022-11-25T00:09:01.434Z,10.50
2022-11-25T00:11:28.162Z,9.31
2022-11-25T00:13:56.330Z,8.95
2022-11-25T00:16:25.685Z,10.59
2022-11-25T00:18:55.955Z,11.51
2022-11-25T00:21:28.864Z,10.36
2022-11-25T00:24:06.014Z,9.22
2022-11-25T00:26:34.321Z,8.99
2022-11-25T00:29:04.361Z,10.73
2022-11-25T00:31:34.411Z,11.55
2022-11-25T00:34:01.637Z,10.33
2022-11-25T00:36:34.861Z,9.21
2022-11-25T00:39:23.861Z,8.95
2022-11-25T00:42:09.189Z,10.89
2022-11-25T00:44:35.901Z,11.32
2022-11-25T00:47:14.278Z,10.03
2022-11-25T00:49:43.827Z,8.93
2022-11-25T00:52:17.779Z,8.84
2022-11-25T00:54:46.968Z,10.69
2022-11-25T00:57:15.151Z,11.34
2022-11-25T00:59:41.766Z,10.09
2022-11-25T01:02:09.220Z,8.97
2022-11-25T01:04:36.179Z,8.76
2022-11-25T01:07:03.014Z,10.49
2022-11-25T01:09:30.367Z,11.32
2022-11-25T01:11:56.992Z,10.14
2022-11-25T01:14:24.448Z,9.02
2022-11-25T01:16:51.195Z,8.69
2022-11-25T01:19:18.329Z,10.30
2022-11-25T01:21:45.208Z,11.26
2022-11-25T01:24:14.052Z,10.12
2022-11-25T01:26:41.315Z,8.96
2022-11-25T01:29:15.553Z,8.65
2022-11-25T01:31:42.843Z,10.34
2022-11-25T01:34:16.717Z,10.94
2022-11-25T01:36:43.402Z,9.67
2022-11-25T01:39:24.448Z,8.56
2022-11-25T01:41:55.040Z,8.36
2022-11-25T01:44:26.444Z,10.15
2022-11-25T01:47:18.692Z,10.86
2022-11-25T01:50:01.964Z,9.45
2022-11-25T01:52:36.013Z,8.31
2022-11-25T01:55:14.204Z,8.45
2022-11-25T01:58:01.271Z,10.41
2022-11-25T02:00:27.801Z,10.68
2022-11-25T02:02:55.164Z,9.39
2022-11-25T02:05:42.283Z,8.37
2022-11-25T02:08:09.185Z,8.38
2022-11-25T02:10:35.930Z,10.24
2022-11-25T02:13:03.006Z,10.79
2022-11-25T02:15:31.018Z,9.58
2022-11-25T02:17:57.622Z,8.48
2022-11-25T02:20:24.559Z,8.34
2022-11-25T02:23:09.607Z,10.07
2022-11-25T02:25:39.648Z,10.82
2022-11-25T02:28:25.167Z,9.56
2022-11-25T02:30:52.188Z,8.37
2022-11-25T02:33:19.996Z,8.13
2022-11-25T02:35:55.693Z,9.87
2022-11-25T02:38:48.715Z,10.80
2022-11-25T02:41:41.680Z,9.42
2022-11-25T02:44:08.193Z,8.21
2022-11-25T02:46:34.913Z,8.09
2022-11-25T02:49:08.986Z,9.85
2022-11-25T02:51:38.420Z,10.79
2022-11-25T02:54:05.673Z,9.62
2022-11-25T02:56:34.258Z,8.51
2022-11-25T02:59:01.775Z,8.24
2022-11-25T03:01:29.170Z,9.95
2022-11-25T03:03:55.574Z,10.91
2022-11-25T03:06:22.642Z,9.81
2022-11-25T03:08:49.322Z,8.69
2022-11-25T03:11:15.820Z,8.28
2022-11-25T03:13:42.249Z,9.86
2022-11-25T03:16:09.010Z,10.89
2022-11-25T03:18:36.085Z,9.81
2022-11-25T03:21:02.969Z,8.69
2022-11-25T03:23:29.553Z,7.91
2022-11-25T03:25:56.438Z,8.73
2022-11-25T03:28:22.984Z,10.51
2022-11-25T03:30:49.515Z,10.20
2022-11-25T03:33:15.947Z,8.95
2022-11-25T03:35:42.505Z,8.00
2022-11-25T03:38:09.001Z,8.08
2022-11-25T03:40:35.461Z,9.94
2022-11-25T03:43:02.035Z,10.76
2022-11-25T03:45:28.602Z,9.60
2022-11-25T03:47:55.127Z,8.45
2022-11-25T03:50:21.491Z,7.79
2022-11-25T03:52:48.020Z,9.02
2022-11-25T03:55:14.491Z,10.34
2022-11-25T03:57:41.282Z,9.45
2022-11-25T04:00:08.822Z,8.32
2022-11-25T04:02:35.349Z,7.72
2022-11-25T04:05:02.584Z,9.11
2022-11-25T04:07:29.187Z,10.46
2022-11-25T04:09:55.585Z,9.60
2022-11-25T04:12:40.905Z,8.45
2022-11-25T04:15:07.974Z,7.95
2022-11-25T04:17:34.595Z,9.57
2022-11-25T04:20:01.152Z,10.66
2022-11-25T04:22:27.582Z,9.60
2022-11-25T04:24:54.036Z,8.49
2022-11-25T04:27:20.692Z,8.10
2022-11-25T04:29:47.202Z,9.71
2022-11-25T04:32:13.664Z,10.74
2022-11-25T04:34:40.275Z,9.67
2022-11-25T04:37:06.908Z,8.54
2022-11-25T04:39:33.320Z,8.15
2022-11-25T04:42:22.873Z,9.74
2022-11-25T04:45:14.023Z,10.68
2022-11-25T04:47:36.017Z,9.34
2022-11-25T04:50:05.112Z,8.30
2022-11-25T04:52:32.997Z,8.19
2022-11-25T04:54:59.537Z,10.00
2022-11-25T04:57:26.203Z,10.89
2022-11-25T04:59:52.635Z,9.75
2022-11-25T05:02:25.511Z,8.60
2022-11-25T05:04:54.684Z,8.06
2022-11-25T05:07:24.947Z,9.57
2022-11-25T05:09:51.688Z,10.73
2022-11-25T05:12:22.261Z,9.70
2022-11-25T05:14:49.263Z,8.57
2022-11-25T05:17:19.575Z,8.16
2022-11-25T05:19:46.512Z,9.79
2022-11-25T05:22:15.009Z,10.77
2022-11-25T05:24:41.918Z,9.67
2022-11-25T05:27:08.604Z,8.52
2022-11-25T05:29:35.396Z,8.05
2022-11-25T05:32:01.758Z,9.60
2022-11-25T05:34:28.164Z,10.69
2022-11-25T05:36:54.600Z,9.64
2022-11-25T05:39:21.165Z,8.53
2022-11-25T05:41:47.620Z,8.04
2022-11-25T05:44:16.195Z,9.57
2022-11-25T05:46:46.519Z,10.74
2022-11-25T05:49:13.130Z,9.69
2022-11-25T05:51:39.636Z,8.57
2022-11-25T05:54:06.620Z,8.18
2022-11-25T05:56:33.154Z,9.79
2022-11-25T05:59:00.000Z,10.79
2022-11-25T06:01:26.755Z,9.70
2022-11-25T06:03:53.197Z,8.56
2022-11-25T06:06:19.936Z,7.91
2022-11-25T06:08:46.698Z,9.17
2022-11-25T06:11:16.462Z,10.70
2022-11-25T06:13:46.089Z,9.98
2022-11-25T06:16:21.876Z,8.77
2022-11-25T06:18:49.134Z,7.91
2022-11-25T06:21:16.393Z,8.82
2022-11-25T06:23:44.819Z,10.60
2022-11-25T06:26:15.354Z,10.42
2022-11-25T06:28:42.037Z,9.14
2022-11-25T06:31:13.096Z,8.15
2022-11-25T06:33:39.918Z,8.20
2022-11-25T06:36:12.975Z,10.04
2022-11-25T06:38:39.639Z,10.73
2022-11-25T06:41:06.085Z,9.51
2022-11-25T06:43:32.592Z,8.45
2022-11-25T06:46:08.049Z,8.17
2022-11-25T06:48:35.660Z,9.94
2022-11-25T06:51:05.729Z,10.63
2022-11-25T06:53:34.125Z,9.43
2022-11-25T06:56:16.679Z,8.36
2022-11-25T06:58:44.236Z,8.40
2022-11-25T07:01:26.646Z,10.24
2022-11-25T07:03:59.267Z,10.52
2022-11-25T07:06:26.267Z,9.24
2022-11-25T07:08:53.138Z,8.26
2022-11-25T07:11:29.839Z,8.26
2022-11-25T07:14:02.101Z,10.16
2022-11-25T07:16:29.824Z,10.87
2022-11-25T07:19:01.399Z,9.68
2022-11-25T07:21:31.659Z,8.60
2022-11-25T07:24:05.478Z,7.98
2022-11-25T07:26:35.707Z,9.36
2022-11-25T07:29:10.742Z,10.64
2022-11-25T07:31:51.480Z,9.56
2022-11-25T07:34:21.553Z,8.50
2022-11-25T07:36:49.959Z,8.03
2022-11-25T07:39:21.553Z,9.55
2022-11-25T07:41:52.911Z,10.64
2022-11-25T07:44:19.896Z,9.62
2022-11-25T07:46:54.386Z,8.55
2022-11-25T07:49:24.859Z,7.98
2022-11-25T07:51:59.125Z,9.36
2022-11-25T07:54:34.932Z,10.57
2022-11-25T07:57:01.685Z,9.59
2022-11-25T07:59:28.596Z,8.54
2022-11-25T08:01:55.632Z,8.24
2022-11-25T08:04:22.746Z,9.83
2022-11-25T08:06:55.910Z,10.84
2022-11-25T08:09:25.625Z,9.80
2022-11-25T08:11:52.889Z,8.73
2022-11-25T08:14:20.014Z,8.21
2022-11-25T08:16:47.204Z,9.59
2022-11-25T08:19:15.951Z,10.87
2022-11-25T08:21:43.025Z,10.05
2022-11-25T08:24:19.295Z,8.96
2022-11-25T08:26:46.603Z,8.36
2022-11-25T08:29:16.067Z,9.70
2022-11-25T08:31:43.216Z,10.93
2022-11-25T08:34:18.284Z,10.07
2022-11-25T08:36:48.467Z,8.96
2022-11-25T08:39:44.212Z,8.30
2022-11-25T08:42:05.039Z,9.62
2022-11-25T08:44:32.063Z,10.95
2022-11-25T08:46:58.905Z,10.13
2022-11-25T08:49:26.410Z,9.00
2022-11-25T08:51:53.113Z,8.25
2022-11-25T08:54:19.590Z,9.01
2022-11-25T08:56:46.069Z,10.72
2022-11-25T08:59:12.953Z,10.89
2022-11-25T09:01:39.579Z,9.73
2022-11-25T09:04:06.211Z,8.81
2022-11-25T09:06:32.965Z,8.69
2022-11-25T09:09:01.072Z,10.30
2022-11-25T09:11:28.026Z,11.21
2022-11-25T09:13:54.979Z,10.18
2022-11-25T09:16:21.925Z,9.17
2022-11-25T09:18:53.986Z,8.53
2022-11-25T09:21:24.111Z,9.59
2022-11-25T09:23:52.129Z,11.13
2022-11-25T09:26:31.470Z,10.60
2022-11-25T09:28:57.999Z,9.42
2022-11-25T09:31:24.822Z,8.63
2022-11-25T09:33:51.257Z,9.09
2022-11-25T09:36:19.717Z,10.82
2022-11-25T09:38:46.531Z,11.35
2022-11-25T09:41:54.268Z,10.21
2022-11-25T09:45:10.386Z,9.03
2022-11-25T09:48:06.056Z,9.45
2022-11-25T09:51:18.491Z,11.38
2022-11-25T09:54:04.355Z,10.64
2022-11-25T09:56:39.794Z,9.49
2022-11-25T09:59:28.259Z,8.77
2022-11-25T10:02:04.607Z,9.62
2022-11-25T10:04:37.413Z,11.40
2022-11-25T10:07:04.828Z,11.31
2022-11-25T10:09:35.126Z,10.17
2022-11-25T10:12:18.840Z,9.30
2022-11-25T10:14:52.618Z,9.27
2022-11-25T10:17:49.369Z,11.04
2022-11-25T10:20:25.317Z,11.77
2022-11-25T10:22:57.463Z,10.58
2022-11-25T10:25:29.977Z,9.65
2022-11-25T10:28:03.033Z,9.07
2022-11-25T10:30:52.190Z,10.19
2022-11-25T10:33:27.778Z,11.80
2022-11-25T10:36:10.596Z,11.06
2022-11-25T10:39:02.047Z,9.95
2022-11-25T10:41:34.104Z,9.26
2022-11-25T10:44:00.467Z,10.40
2022-11-25T10:47:12.226Z,11.99
2022-11-25T10:50:00.670Z,11.35
2022-11-25T10:52:30.066Z,10.11
2022-11-25T10:55:09.121Z,9.39
2022-11-25T10:57:35.907Z,9.63
2022-11-25T11:00:05.123Z,11.38
2022-11-25T11:02:34.286Z,12.16
2022-11-25T11:05:10.627Z,11.11
2022-11-25T11:07:45.612Z,10.09
2022-11-25T11:10:22.691Z,9.47
2022-11-25T11:12:57.006Z,10.63
2022-11-25T11:15:33.289Z,12.15
2022-11-25T11:18:20.346Z,11.60
2022-11-25T11:20:55.630Z,10.41
2022-11-25T11:23:23.070Z,9.65
2022-11-25T11:26:05.682Z,9.91
2022-11-25T11:28:36.461Z,11.69
2022-11-25T11:31:24.305Z,12.30
2022-11-25T11:34:27.368Z,11.07
2022-11-25T11:37:15.292Z,9.99
2022-11-25T11:40:45.864Z,10.04
2022-11-25T11:44:05.465Z,12.27
2022-11-25T11:47:22.790Z,11.67
2022-11-25T11:50:27.873Z,10.34
2022-11-25T11:53:04.486Z,10.43
2022-11-25T11:56:00.266Z,12.20
2022-11-25T11:58:43.893Z,12.57
2022-11-25T12:01:53.916Z,11.31
2022-11-25T12:04:29.167Z,10.17
2022-11-25T12:07:21.671Z,10.55
2022-11-25T12:10:04.642Z,12.45
2022-11-25T12:12:57.384Z,12.72
2022-11-25T12:15:45.791Z,11.37
2022-11-25T12:18:38.460Z,10.38
2022-11-25T12:21:13.234Z,10.73
2022-11-25T12:24:05.533Z,12.46
2022-11-25T12:26:58.380Z,12.35
2022-11-25T12:29:36.785Z,11.04
2022-11-25T12:32:54.442Z,10.28
2022-11-25T12:36:09.771Z,11.75
2022-11-25T12:38:54.686Z,12.67
2022-11-25T12:41:40.606Z,11.45
2022-11-25T12:44:33.053Z,10.46
2022-11-25T12:46:59.805Z,11.03
2022-11-25T12:49:29.440Z,12.59
2022-11-25T12:52:10.999Z,12.95
2022-11-25T12:55:02.851Z,11.64
2022-11-25T12:57:53.868Z,10.57
2022-11-25T13:00:40.949Z,11.27
2022-11-25T13:04:09.609Z,12.85
2022-11-25T13:07:35.116Z,12.07
2022-11-25T13:10:27.451Z,10.68
2022-11-25T13:13:17.977Z,10.91
2022-11-25T13:15:51.806Z,12.61
2022-11-25T13:18:25.573Z,12.79
2022-11-25T13:20:56.593Z,11.59
2022-11-25T13:23:29.054Z,10.64
2022-11-25T13:26:27.932Z,10.89
2022-11-25T13:28:56.405Z,12.56
2022-11-25T13:31:30.691Z,12.92
2022-11-25T13:34:24.914Z,11.76
2022-11-25T13:36:54.977Z,10.67
2022-11-25T13:39:37.845Z,10.77
2022-11-25T13:42:17.836Z,12.35
2022-11-25T13:44:53.189Z,13.17
2022-11-25T13:47:49.162Z,12.10
2022-11-25T13:50:20.540Z,10.87
2022-11-25T13:53:21.714Z,10.58
2022-11-25T13:55:54.413Z,12.29
2022-11-25T13:58:25.501Z,13.04
2022-11-25T14:00:58.346Z,11.95
2022-11-25T14:03:25.008Z,10.90
2022-11-25T14:06:30.256Z,10.85
2022-11-25T14:09:14.444Z,12.66
2022-11-25T14:12:23.328Z,13.12
2022-11-25T14:15:25.655Z,11.62
2022-11-25T14:19:06.797Z,10.63
2022-11-25T14:21:56.714Z,12.18
2022-11-25T14:24:34.204Z,12.95
2022-11-25T14:27:01.452Z,11.76
2022-11-25T14:29:43.094Z,10.79
2022-11-25T14:32:20.948Z,11.18
2022-11-25T14:34:52.679Z,12.82
2022-11-25T14:37:47.777Z,12.87
2022-11-25T14:40:31.337Z,11.46
2022-11-25T14:43:04.038Z,10.67
2022-11-25T14:45:35.139Z,11.78
2022-11-25T14:48:15.638Z,13.07
2022-11-25T14:51:13.491Z,12.62
2022-11-25T14:53:48.414Z,11.20
2022-11-25T14:56:24.868Z,10.84
2022-11-25T14:58:54.066Z,12.22
2022-11-25T15:01:30.626Z,13.07
2022-11-25T15:04:23.250Z,12.06
2022-11-25T15:07:00.151Z,10.90
2022-11-25T15:09:42.048Z,11.44
2022-11-25T15:12:14.936Z,12.92
2022-11-25T15:14:48.271Z,12.96
2022-11-25T15:17:28.433Z,11.70
2022-11-25T15:19:59.065Z,11.13
2022-11-25T15:22:25.684Z,12.36
2022-11-25T15:24:55.973Z,13.15
2022-11-25T15:27:28.145Z,12.18
2022-11-25T15:29:56.627Z,11.21
2022-11-25T15:32:33.825Z,11.98
2022-11-25T15:35:04.543Z,13.15
2022-11-25T15:37:35.712Z,12.53
2022-11-25T15:40:40.046Z,11.35
2022-11-25T15:43:20.806Z,11.16
2022-11-25T15:45:50.040Z,12.75
2022-11-25T15:48:29.595Z,13.31
2022-11-25T15:51:32.643Z,12.04
2022-11-25T15:54:23.968Z,10.86
2022-11-25T15:56:57.871Z,12.21
2022-11-25T15:59:42.036Z,13.44
2022-11-25T16:02:38.405Z,12.31
2022-11-25T16:05:14.482Z,11.01
2022-11-25T16:07:51.994Z,11.51
2022-11-25T16:10:22.856Z,13.19
2022-11-25T16:13:26.313Z,13.69
2022-11-25T16:16:00.405Z,12.10
2022-11-25T16:18:40.354Z,11.01
2022-11-25T16:21:17.861Z,11.13
2022-11-25T16:23:50.538Z,12.84
2022-11-25T16:26:23.003Z,13.77
2022-11-25T16:28:54.333Z,12.54
2022-11-25T16:31:22.040Z,11.32
2022-11-25T16:33:52.270Z,10.89
2022-11-25T16:36:18.705Z,12.10
2022-11-25T16:38:45.502Z,13.33
2022-11-25T16:41:23.976Z,13.28
2022-11-25T16:43:52.750Z,11.92
2022-11-25T16:46:29.741Z,10.89
2022-11-25T16:48:58.300Z,11.18
2022-11-25T16:51:25.487Z,12.76
2022-11-25T16:53:52.066Z,13.44
2022-11-25T16:56:27.881Z,12.29
2022-11-25T16:58:55.070Z,11.14
2022-11-25T17:01:25.690Z,11.48
2022-11-25T17:03:52.483Z,13.32
2022-11-25T17:06:23.736Z,13.42
2022-11-25T17:08:51.059Z,12.10
2022-11-25T17:11:25.823Z,11.05
2022-11-25T17:13:54.508Z,11.05
2022-11-25T17:16:27.688Z,12.51
2022-11-25T17:18:59.517Z,13.61
2022-11-25T17:21:28.061Z,12.66
2022-11-25T17:24:02.069Z,11.45
2022-11-25T17:26:42.716Z,11.15
2022-11-25T17:29:38.584Z,12.62
2022-11-25T17:32:05.574Z,13.33
2022-11-25T17:34:36.423Z,12.14
2022-11-25T17:37:17.806Z,11.05
2022-11-25T17:39:44.309Z,11.38
2022-11-25T17:42:20.291Z,12.73
2022-11-25T17:44:52.759Z,13.43
2022-11-25T17:47:20.647Z,12.18
2022-11-25T17:49:48.671Z,11.01
2022-11-25T17:52:15.470Z,11.36
2022-11-25T17:54:42.079Z,12.87
2022-11-25T17:57:14.306Z,13.32
2022-11-25T17:59:42.313Z,12.06
2022-11-25T18:02:21.669Z,10.97
2022-11-25T18:04:50.071Z,11.50
2022-11-25T18:07:17.362Z,12.97
2022-11-25T18:09:44.623Z,13.43
2022-11-25T18:12:29.542Z,12.24
2022-11-25T18:14:56.564Z,11.01
2022-11-25T18:17:23.226Z,10.93
2022-11-25T18:19:54.850Z,12.38
2022-11-25T18:22:23.324Z,13.20
2022-11-25T18:24:49.875Z,12.08
2022-11-25T18:27:27.946Z,10.94
2022-11-25T18:29:55.930Z,10.69
2022-11-25T18:32:26.048Z,12.05
2022-11-25T18:34:55.703Z,13.01
2022-11-25T18:37:22.650Z,12.06
2022-11-25T18:39:50.609Z,10.91
2022-11-25T18:42:25.803Z,10.59
2022-11-25T18:44:55.143Z,11.95
2022-11-25T18:47:26.679Z,13.08
2022-11-25T18:49:56.169Z,12.62
2022-11-25T18:52:26.276Z,11.34
2022-11-25T18:54:52.820Z,10.77
2022-11-25T18:57:19.787Z,11.88
2022-11-25T19:00:00.269Z,13.09
2022-11-25T19:02:41.009Z,12.06
2022-11-25T19:05:21.050Z,10.83
2022-11-25T19:07:50.900Z,10.82
2022-11-25T19:10:17.546Z,12.02
2022-11-25T19:12:51.106Z,12.92
2022-11-25T19:15:26.344Z,12.58
2022-11-25T19:18:03.377Z,11.31
2022-11-25T19:20:37.754Z,10.76
2022-11-25T19:23:28.892Z,11.90
2022-11-25T19:26:10.021Z,12.96
2022-11-25T19:28:37.316Z,12.36
2022-11-25T19:31:12.666Z,11.15
2022-11-25T19:33:45.383Z,10.82
2022-11-25T19:36:27.564Z,12.27
2022-11-25T19:38:54.378Z,13.45
2022-11-25T19:41:22.070Z,12.44
2022-11-25T19:43:49.084Z,11.21
2022-11-25T19:46:46.138Z,10.79
2022-11-25T19:49:22.271Z,12.65
2022-11-25T19:52:01.912Z,13.32
2022-11-25T19:54:31.781Z,11.99
2022-11-25T19:56:58.480Z,10.90
2022-11-25T19:59:26.779Z,10.79
2022-11-25T20:01:53.335Z,12.21
2022-11-25T20:04:20.727Z,12.88
2022-11-25T20:06:48.159Z,11.87
2022-11-25T20:09:27.384Z,10.80
2022-11-25T20:11:58.026Z,10.85
2022-11-25T20:14:28.291Z,12.20
2022-11-25T20:16:54.902Z,13.21
2022-11-25T20:19:22.912Z,12.22
2022-11-25T20:21:52.418Z,11.04
2022-11-25T20:24:22.448Z,10.67
2022-11-25T20:26:52.871Z,11.98
2022-11-25T20:29:30.253Z,13.34
2022-11-25T20:32:20.305Z,12.68
2022-11-25T20:35:17.540Z,11.28
2022-11-25T20:37:53.073Z,10.98
2022-11-25T20:40:23.480Z,12.61
2022-11-25T20:42:51.415Z,13.35
2022-11-25T20:45:24.367Z,12.12
2022-11-25T20:47:52.245Z,10.96
2022-11-25T20:50:20.796Z,10.69
2022-11-25T20:52:53.343Z,11.89
2022-11-25T20:55:24.321Z,12.72
2022-11-25T20:57:52.262Z,12.03
2022-11-25T21:00:29.785Z,10.90
2022-11-25T21:02:57.240Z,10.53
2022-11-25T21:05:25.930Z,11.61
2022-11-25T21:07:56.187Z,12.44
2022-11-25T21:10:28.528Z,12.66
2022-11-25T21:12:56.370Z,11.56
2022-11-25T21:15:27.936Z,10.63
2022-11-25T21:17:54.570Z,11.36
2022-11-25T21:20:21.622Z,12.79
2022-11-25T21:22:57.352Z,13.04
2022-11-25T21:25:24.580Z,11.65
2022-11-25T21:27:51.742Z,10.97
2022-11-25T21:30:25.599Z,12.21
2022-11-25T21:33:01.881Z,13.09
2022-11-25T21:35:34.413Z,11.92
2022-11-25T21:38:03.708Z,10.80
2022-11-25T21:40:57.313Z,10.99
2022-11-25T21:43:31.354Z,12.87
2022-11-25T21:46:04.789Z,13.33
2022-11-25T21:48:31.561Z,12.03
2022-11-25T21:50:58.437Z,10.94
2022-11-25T21:53:27.488Z,11.07
2022-11-25T21:55:54.424Z,12.74
2022-11-25T21:58:27.246Z,13.47
2022-11-25T22:01:01.191Z,12.22
2022-11-25T22:03:30.408Z,11.03
2022-11-25T22:05:57.327Z,10.67
2022-11-25T22:08:23.873Z,12.22
2022-11-25T22:10:54.325Z,13.21
2022-11-25T22:13:33.744Z,12.09
2022-11-25T22:16:01.014Z,10.95
2022-11-25T22:18:32.399Z,11.58
2022-11-25T22:20:59.009Z,13.22
2022-11-25T22:23:26.013Z,13.22
2022-11-25T22:25:52.972Z,11.89
2022-11-25T22:28:27.913Z,10.87
2022-11-25T22:31:01.166Z,11.53
2022-11-25T22:33:34.600Z,13.22
2022-11-25T22:36:03.053Z,12.93
2022-11-25T22:38:30.504Z,11.61
2022-11-25T22:41:03.141Z,10.77
2022-11-25T22:43:35.319Z,11.92
2022-11-25T22:46:03.637Z,13.43
2022-11-25T22:48:35.380Z,12.97
2022-11-25T22:51:04.558Z,11.64
2022-11-25T22:53:31.823Z,10.74
2022-11-25T22:55:58.165Z,11.63
2022-11-25T22:58:26.312Z,13.26
2022-11-25T23:00:56.250Z,13.17
2022-11-25T23:03:33.557Z,11.81
2022-11-25T23:06:04.893Z,10.71
2022-11-25T23:08:33.060Z,10.81
2022-11-25T23:11:04.199Z,12.51
2022-11-25T23:13:30.994Z,13.38
2022-11-25T23:16:00.731Z,12.21
2022-11-25T23:18:44.497Z,11.02
2022-11-25T23:21:27.394Z,10.92
2022-11-25T23:23:54.303Z,12.69
2022-11-25T23:26:21.188Z,13.59
2022-11-25T23:28:48.673Z,12.52
2022-11-25T23:31:16.477Z,11.31
2022-11-25T23:33:48.341Z,10.91
2022-11-25T23:36:26.981Z,12.47
2022-11-25T23:38:59.463Z,13.40
2022-11-25T23:41:31.304Z,12.24
2022-11-25T23:44:11.867Z,11.06
2022-11-25T23:46:41.272Z,11.18
2022-11-25T23:49:23.571Z,12.87
2022-11-25T23:51:51.057Z,13.42
2022-11-25T23:54:20.605Z,12.14
2022-11-25T23:56:47.413Z,11.05
2022-11-25T23:59:15.231Z,11.47
